sensor_id;sensor_type;location;lat;lon;timestamp;P1;durP1;ratioP1;P2;durP2;ratioP2
14992;SDS011;7592;51.088;13.732;2022-12-16T00:01:55;56.87;;;33.03;;
14992;SDS011;7592;51.088;13.732;2022-12-16T00:06:48;55.80;;;30.23;;
14992;SDS011;7592;51.088;13.732;2022-12-16T00:11:42;58.37;;;29.97;;
14992;SDS011;7592;51.088;13.732;2022-12-16T00:16:33;62.03;;;34.77;;
14992;SDS011;7592;51.088;13.732;2022-12-16T00:21:26;57.20;;;30.60;;
14992;SDS011;7592;51.088;13.732;2022-12-16T00:26:20;58.77;;;31.90;;
14992;SDS011;7592;51.088;13.732;2022-12-16T00:31:12;61.17;;;33.20;;
14992;SDS011;7592;51.088;13.732;2022-12-16T00:36:04;65.57;;;35.37;;
14992;SDS011;7592;51.088;13.732;2022-12-16T00:40:57;68.97;;;39.43;;
14992;SDS011;7592;51.088;13.732;2022-12-16T00:45:49;61.67;;;35.30;;
14992;SDS011;7592;51.088;13.732;2022-12-16T00:50:47;64.40;;;35.30;;
14992;SDS011;7592;51.088;13.732;2022-12-16T00:55:42;58.60;;;32.57;;
14992;SDS011;7592;51.088;13.732;2022-12-16T01:00:36;55.40;;;30.27;;
14992;SDS011;7592;51.088;13.732;2022-12-16T01:05:29;64.90;;;34.17;;
14992;SDS011;7592;51.088;13.732;2022-12-16T01:10:22;57.20;;;31.60;;
14992;SDS011;7592;51.088;13.732;2022-12-16T01:15:15;62.70;;;33.90;;
14992;SDS011;7592;51.088;13.732;2022-12-16T01:20:08;56.17;;;32.40;;
14992;SDS011;7592;51.088;13.732;2022-12-16T01:25:01;59.27;;;31.30;;
14992;SDS011;7592;51.088;13.732;2022-12-16T01:29:55;55.70;;;31.37;;
14992;SDS011;7592;51.088;13.732;2022-12-16T01:34:51;59.47;;;34.13;;
14992;SDS011;7592;51.088;13.732;2022-12-16T01:39:46;57.93;;;32.07;;
14992;SDS011;7592;51.088;13.732;2022-12-16T01:44:40;64.10;;;34.60;;
14992;SDS011;7592;51.088;13.732;2022-12-16T01:49:35;61.00;;;34.63;;
14992;SDS011;7592;51.088;13.732;2022-12-16T01:54:34;62.37;;;34.17;;
14992;SDS011;7592;51.088;13.732;2022-12-16T01:59:30;60.37;;;32.37;;
14992;SDS011;7592;51.088;13.732;2022-12-16T02:04:26;57.00;;;32.10;;
14992;SDS011;7592;51.088;13.732;2022-12-16T02:20:57;55.97;;;30.73;;
14992;SDS011;7592;51.088;13.732;2022-12-16T02:25:40;55.97;;;31.07;;
14992;SDS011;7592;51.088;13.732;2022-12-16T02:36:22;75.87;;;38.27;;
14992;SDS011;7592;51.088;13.732;2022-12-16T02:46:30;62.20;;;35.67;;
14992;SDS011;7592;51.088;13.732;2022-12-16T02:51:24;59.30;;;34.73;;
14992;SDS011;7592;51.088;13.732;2022-12-16T02:56:21;63.57;;;35.40;;
14992;SDS011;7592;51.088;13.732;2022-12-16T03:01:34;66.43;;;35.20;;
14992;SDS011;7592;51.088;13.732;2022-12-16T03:06:41;58.33;;;34.10;;
14992;SDS011;7592;51.088;13.732;2022-12-16T03:11:38;62.17;;;35.23;;
14992;SDS011;7592;51.088;13.732;2022-12-16T03:16:33;60.47;;;32.83;;
14992;SDS011;7592;51.088;13.732;2022-12-16T03:21:27;63.67;;;36.03;;
14992;SDS011;7592;51.088;13.732;2022-12-16T03:26:34;58.70;;;33.90;;
14992;SDS011;7592;51.088;13.732;2022-12-16T03:36:46;66.27;;;34.37;;
14992;SDS011;7592;51.088;13.732;2022-12-16T03:41:43;64.27;;;34.63;;
14992;SDS011;7592;51.088;13.732;2022-12-16T03:46:37;53.60;;;31.07;;
14992;SDS011;7592;51.088;13.732;2022-12-16T03:51:29;56.50;;;31.20;;
14992;SDS011;7592;51.088;13.732;2022-12-16T03:56:21;59.27;;;30.90;;
14992;SDS011;7592;51.088;13.732;2022-12-16T04:01:13;56.57;;;31.53;;
14992;SDS011;7592;51.088;13.732;2022-12-16T04:06:06;50.07;;;29.70;;
14992;SDS011;7592;51.088;13.732;2022-12-16T04:10:58;54.40;;;29.33;;
14992;SDS011;7592;51.088;13.732;2022-12-16T04:16:12;50.47;;;29.87;;
14992;SDS011;7592;51.088;13.732;2022-12-16T04:21:25;47.27;;;29.23;;
14992;SDS011;7592;51.088;13.732;2022-12-16T04:26:36;44.80;;;28.87;;
14992;SDS011;7592;51.088;13.732;2022-12-16T04:31:46;51.43;;;28.50;;
14992;SDS011;7592;51.088;13.732;2022-12-16T04:36:39;47.27;;;28.53;;
14992;SDS011;7592;51.088;13.732;2022-12-16T04:42:00;47.07;;;28.03;;
14992;SDS011;7592;51.088;13.732;2022-12-16T04:47:10;44.63;;;27.07;;
14992;SDS011;7592;51.088;13.732;2022-12-16T04:52:34;49.37;;;29.40;;
14992;SDS011;7592;51.088;13.732;2022-12-16T04:57:50;41.47;;;25.70;;
14992;SDS011;7592;51.088;13.732;2022-12-16T05:03:05;42.77;;;25.53;;
14992;SDS011;7592;51.088;13.732;2022-12-16T05:08:16;43.13;;;25.83;;
14992;SDS011;7592;51.088;13.732;2022-12-16T05:13:26;44.97;;;25.47;;
14992;SDS011;7592;51.088;13.732;2022-12-16T05:18:36;46.10;;;26.20;;
14992;SDS011;7592;51.088;13.732;2022-12-16T05:23:47;46.23;;;26.30;;
14992;SDS011;7592;51.088;13.732;2022-12-16T05:28:58;46.43;;;25.43;;
14992;SDS011;7592;51.088;13.732;2022-12-16T05:34:08;42.77;;;26.30;;
14992;SDS011;7592;51.088;13.732;2022-12-16T05:39:19;44.50;;;24.57;;
14992;SDS011;7592;51.088;13.732;2022-12-16T05:44:29;40.93;;;25.23;;
14992;SDS011;7592;51.088;13.732;2022-12-16T05:49:40;38.00;;;23.53;;
14992;SDS011;7592;51.088;13.732;2022-12-16T05:54:50;42.90;;;24.93;;
14992;SDS011;7592;51.088;13.732;2022-12-16T06:00:01;42.30;;;25.77;;
14992;SDS011;7592;51.088;13.732;2022-12-16T06:05:12;42.83;;;24.93;;
14992;SDS011;7592;51.088;13.732;2022-12-16T06:10:22;36.47;;;22.53;;
14992;SDS011;7592;51.088;13.732;2022-12-16T06:15:33;40.97;;;23.77;;
14992;SDS011;7592;51.088;13.732;2022-12-16T06:20:43;40.50;;;24.30;;
14992;SDS011;7592;51.088;13.732;2022-12-16T06:25:54;43.53;;;27.43;;
14992;SDS011;7592;51.088;13.732;2022-12-16T06:31:05;47.73;;;25.33;;
14992;SDS011;7592;51.088;13.732;2022-12-16T06:36:15;39.97;;;23.60;;
14992;SDS011;7592;51.088;13.732;2022-12-16T06:41:26;44.60;;;26.07;;
14992;SDS011;7592;51.088;13.732;2022-12-16T06:46:36;51.40;;;27.70;;
14992;SDS011;7592;51.088;13.732;2022-12-16T06:51:47;43.90;;;26.37;;
14992;SDS011;7592;51.088;13.732;2022-12-16T06:56:57;44.97;;;26.10;;
14992;SDS011;7592;51.088;13.732;2022-12-16T07:02:09;44.80;;;26.60;;
14992;SDS011;7592;51.088;13.732;2022-12-16T07:07:20;48.03;;;28.23;;
14992;SDS011;7592;51.088;13.732;2022-12-16T07:12:31;47.33;;;28.37;;
14992;SDS011;7592;51.088;13.732;2022-12-16T07:17:43;48.73;;;28.77;;
14992;SDS011;7592;51.088;13.732;2022-12-16T07:22:54;52.17;;;29.23;;
14992;SDS011;7592;51.088;13.732;2022-12-16T07:28:10;52.87;;;30.63;;
14992;SDS011;7592;51.088;13.732;2022-12-16T07:33:20;61.33;;;35.23;;
14992;SDS011;7592;51.088;13.732;2022-12-16T07:38:31;66.63;;;38.50;;
14992;SDS011;7592;51.088;13.732;2022-12-16T07:43:41;79.13;;;47.30;;
14992;SDS011;7592;51.088;13.732;2022-12-16T07:48:53;89.50;;;47.37;;
14992;SDS011;7592;51.088;13.732;2022-12-16T07:54:03;77.57;;;41.97;;
14992;SDS011;7592;51.088;13.732;2022-12-16T07:59:15;74.07;;;42.27;;
14992;SDS011;7592;51.088;13.732;2022-12-16T08:04:25;74.23;;;41.20;;
14992;SDS011;7592;51.088;13.732;2022-12-16T08:09:36;77.93;;;42.07;;
14992;SDS011;7592;51.088;13.732;2022-12-16T08:14:46;73.97;;;43.10;;
14992;SDS011;7592;51.088;13.732;2022-12-16T08:19:58;74.40;;;42.90;;
14992;SDS011;7592;51.088;13.732;2022-12-16T08:25:09;76.10;;;42.57;;
14992;SDS011;7592;51.088;13.732;2022-12-16T08:30:19;76.07;;;43.33;;
14992;SDS011;7592;51.088;13.732;2022-12-16T08:35:30;70.33;;;40.27;;
14992;SDS011;7592;51.088;13.732;2022-12-16T08:40:41;76.97;;;43.53;;
14992;SDS011;7592;51.088;13.732;2022-12-16T08:45:53;77.63;;;42.70;;
14992;SDS011;7592;51.088;13.732;2022-12-16T08:51:05;79.43;;;43.60;;
14992;SDS011;7592;51.088;13.732;2022-12-16T08:56:15;80.80;;;43.47;;
14992;SDS011;7592;51.088;13.732;2022-12-16T09:01:26;77.13;;;41.80;;
14992;SDS011;7592;51.088;13.732;2022-12-16T09:06:37;72.20;;;42.03;;
14992;SDS011;7592;51.088;13.732;2022-12-16T09:11:48;72.70;;;40.87;;
14992;SDS011;7592;51.088;13.732;2022-12-16T09:16:59;69.33;;;39.50;;
14992;SDS011;7592;51.088;13.732;2022-12-16T09:22:09;70.77;;;40.80;;
14992;SDS011;7592;51.088;13.732;2022-12-16T09:27:19;65.50;;;36.43;;
14992;SDS011;7592;51.088;13.732;2022-12-16T09:32:30;55.70;;;35.70;;
14992;SDS011;7592;51.088;13.732;2022-12-16T09:37:45;64.97;;;38.83;;
14992;SDS011;7592;51.088;13.732;2022-12-16T09:48:46;55.30;;;34.23;;
14992;SDS011;7592;51.088;13.732;2022-12-16T09:54:05;57.30;;;34.97;;
14992;SDS011;7592;51.088;13.732;2022-12-16T09:59:27;57.17;;;36.47;;
14992;SDS011;7592;51.088;13.732;2022-12-16T10:05:01;55.27;;;34.63;;
14992;SDS011;7592;51.088;13.732;2022-12-16T10:16:15;61.20;;;35.13;;
14992;SDS011;7592;51.088;13.732;2022-12-16T10:21:58;60.50;;;37.77;;
14992;SDS011;7592;51.088;13.732;2022-12-16T10:27:21;59.40;;;35.23;;
14992;SDS011;7592;51.088;13.732;2022-12-16T10:32:48;57.07;;;35.70;;
14992;SDS011;7592;51.088;13.732;2022-12-16T10:38:00;56.70;;;35.70;;
14992;SDS011;7592;51.088;13.732;2022-12-16T10:43:13;54.90;;;35.27;;
14992;SDS011;7592;51.088;13.732;2022-12-16T10:48:29;57.57;;;35.20;;
14992;SDS011;7592;51.088;13.732;2022-12-16T10:53:48;54.17;;;34.33;;
14992;SDS011;7592;51.088;13.732;2022-12-16T10:59:00;53.23;;;34.10;;
14992;SDS011;7592;51.088;13.732;2022-12-16T11:09:46;52.30;;;32.77;;
14992;SDS011;7592;51.088;13.732;2022-12-16T11:14:59;53.00;;;33.00;;
14992;SDS011;7592;51.088;13.732;2022-12-16T11:20:21;53.70;;;34.37;;
14992;SDS011;7592;51.088;13.732;2022-12-16T11:25:33;48.80;;;31.47;;
14992;SDS011;7592;51.088;13.732;2022-12-16T11:30:51;59.03;;;35.37;;
14992;SDS011;7592;51.088;13.732;2022-12-16T11:36:25;56.67;;;34.23;;
14992;SDS011;7592;51.088;13.732;2022-12-16T11:41:37;51.10;;;33.03;;
14992;SDS011;7592;51.088;13.732;2022-12-16T11:46:50;52.60;;;32.90;;
14992;SDS011;7592;51.088;13.732;2022-12-16T11:52:01;54.47;;;35.37;;
14992;SDS011;7592;51.088;13.732;2022-12-16T11:58:14;52.60;;;34.00;;
14992;SDS011;7592;51.088;13.732;2022-12-16T12:03:22;52.87;;;31.73;;
14992;SDS011;7592;51.088;13.732;2022-12-16T12:30:56;56.57;;;34.83;;
14992;SDS011;7592;51.088;13.732;2022-12-16T12:47:24;59.23;;;34.53;;
14992;SDS011;7592;51.088;13.732;2022-12-16T12:58:10;55.13;;;32.03;;
14992;SDS011;7592;51.088;13.732;2022-12-16T13:08:56;59.87;;;33.77;;
14992;SDS011;7592;51.088;13.732;2022-12-16T13:19:40;54.47;;;34.93;;
14992;SDS011;7592;51.088;13.732;2022-12-16T13:24:53;57.43;;;35.03;;
14992;SDS011;7592;51.088;13.732;2022-12-16T13:30:16;60.10;;;36.30;;
14992;SDS011;7592;51.088;13.732;2022-12-16T13:35:29;55.43;;;34.03;;
14992;SDS011;7592;51.088;13.732;2022-12-16T13:40:59;60.10;;;34.30;;
14992;SDS011;7592;51.088;13.732;2022-12-16T13:46:13;62.03;;;35.80;;
14992;SDS011;7592;51.088;13.732;2022-12-16T13:52:11;59.73;;;35.23;;
14992;SDS011;7592;51.088;13.732;2022-12-16T13:57:07;58.67;;;34.57;;
14992;SDS011;7592;51.088;13.732;2022-12-16T14:07:49;60.70;;;36.20;;
14992;SDS011;7592;51.088;13.732;2022-12-16T14:13:02;59.67;;;38.00;;
14992;SDS011;7592;51.088;13.732;2022-12-16T14:18:37;62.50;;;37.37;;
14992;SDS011;7592;51.088;13.732;2022-12-16T14:23:57;61.07;;;35.87;;
14992;SDS011;7592;51.088;13.732;2022-12-16T14:29:19;62.23;;;36.97;;
14992;SDS011;7592;51.088;13.732;2022-12-16T14:34:34;59.77;;;35.43;;
14992;SDS011;7592;51.088;13.732;2022-12-16T14:39:47;63.20;;;37.00;;
14992;SDS011;7592;51.088;13.732;2022-12-16T14:44:59;60.97;;;37.50;;
14992;SDS011;7592;51.088;13.732;2022-12-16T14:50:20;61.03;;;37.57;;
14992;SDS011;7592;51.088;13.732;2022-12-16T14:55:38;58.93;;;35.03;;
14992;SDS011;7592;51.088;13.732;2022-12-16T15:00:48;64.77;;;37.77;;
14992;SDS011;7592;51.088;13.732;2022-12-16T15:06:07;64.47;;;37.67;;
14992;SDS011;7592;51.088;13.732;2022-12-16T15:11:26;63.70;;;38.27;;
14992;SDS011;7592;51.088;13.732;2022-12-16T15:16:36;61.80;;;37.80;;
14992;SDS011;7592;51.088;13.732;2022-12-16T15:21:47;67.27;;;38.77;;
14992;SDS011;7592;51.088;13.732;2022-12-16T15:32:32;67.03;;;38.63;;
14992;SDS011;7592;51.088;13.732;2022-12-16T15:37:44;63.93;;;38.87;;
14992;SDS011;7592;51.088;13.732;2022-12-16T15:42:55;59.77;;;36.70;;
14992;SDS011;7592;51.088;13.732;2022-12-16T15:48:11;67.37;;;37.97;;
14992;SDS011;7592;51.088;13.732;2022-12-16T15:53:42;65.93;;;36.40;;
14992;SDS011;7592;51.088;13.732;2022-12-16T15:58:52;66.80;;;37.07;;
14992;SDS011;7592;51.088;13.732;2022-12-16T16:04:41;61.87;;;35.30;;
14992;SDS011;7592;51.088;13.732;2022-12-16T16:09:52;69.80;;;38.37;;
14992;SDS011;7592;51.088;13.732;2022-12-16T16:15:31;70.30;;;37.80;;
14992;SDS011;7592;51.088;13.732;2022-12-16T16:20:42;65.57;;;38.40;;
14992;SDS011;7592;51.088;13.732;2022-12-16T16:25:53;67.03;;;37.43;;
14992;SDS011;7592;51.088;13.732;2022-12-16T16:31:04;61.83;;;36.93;;
14992;SDS011;7592;51.088;13.732;2022-12-16T16:36:14;62.70;;;36.13;;
14992;SDS011;7592;51.088;13.732;2022-12-16T16:41:26;72.67;;;39.60;;
14992;SDS011;7592;51.088;13.732;2022-12-16T16:46:37;65.47;;;37.87;;
14992;SDS011;7592;51.088;13.732;2022-12-16T16:51:49;64.10;;;39.10;;
14992;SDS011;7592;51.088;13.732;2022-12-16T16:57:00;63.07;;;36.83;;
14992;SDS011;7592;51.088;13.732;2022-12-16T17:02:18;71.20;;;40.57;;
14992;SDS011;7592;51.088;13.732;2022-12-16T17:07:31;67.27;;;39.67;;
14992;SDS011;7592;51.088;13.732;2022-12-16T17:12:44;67.70;;;39.00;;
14992;SDS011;7592;51.088;13.732;2022-12-16T17:17:55;66.07;;;37.87;;
14992;SDS011;7592;51.088;13.732;2022-12-16T17:23:05;65.77;;;38.93;;
14992;SDS011;7592;51.088;13.732;2022-12-16T17:28:16;62.07;;;37.37;;
14992;SDS011;7592;51.088;13.732;2022-12-16T17:33:26;67.83;;;38.57;;
14992;SDS011;7592;51.088;13.732;2022-12-16T17:38:41;64.90;;;38.97;;
14992;SDS011;7592;51.088;13.732;2022-12-16T17:43:53;60.77;;;38.63;;
14992;SDS011;7592;51.088;13.732;2022-12-16T17:49:03;65.27;;;39.90;;
14992;SDS011;7592;51.088;13.732;2022-12-16T17:54:13;70.07;;;42.83;;
14992;SDS011;7592;51.088;13.732;2022-12-16T17:59:24;66.17;;;39.87;;
14992;SDS011;7592;51.088;13.732;2022-12-16T18:04:34;69.60;;;40.63;;
14992;SDS011;7592;51.088;13.732;2022-12-16T18:09:44;60.87;;;39.17;;
14992;SDS011;7592;51.088;13.732;2022-12-16T18:14:55;70.13;;;40.27;;
14992;SDS011;7592;51.088;13.732;2022-12-16T18:20:05;68.87;;;38.53;;
14992;SDS011;7592;51.088;13.732;2022-12-16T18:25:16;72.50;;;40.17;;
14992;SDS011;7592;51.088;13.732;2022-12-16T18:30:26;68.27;;;42.13;;
14992;SDS011;7592;51.088;13.732;2022-12-16T18:35:37;67.13;;;39.67;;
14992;SDS011;7592;51.088;13.732;2022-12-16T18:40:47;73.73;;;42.63;;
14992;SDS011;7592;51.088;13.732;2022-12-16T18:45:58;68.53;;;41.17;;
14992;SDS011;7592;51.088;13.732;2022-12-16T18:51:08;67.17;;;40.93;;
14992;SDS011;7592;51.088;13.732;2022-12-16T18:56:19;67.20;;;40.50;;
14992;SDS011;7592;51.088;13.732;2022-12-16T19:01:29;68.53;;;40.50;;
14992;SDS011;7592;51.088;13.732;2022-12-16T19:06:39;67.00;;;42.57;;
14992;SDS011;7592;51.088;13.732;2022-12-16T19:11:50;75.00;;;42.63;;
14992;SDS011;7592;51.088;13.732;2022-12-16T19:17:00;64.33;;;40.67;;
14992;SDS011;7592;51.088;13.732;2022-12-16T19:22:11;66.80;;;40.90;;
14992;SDS011;7592;51.088;13.732;2022-12-16T19:27:22;70.17;;;39.93;;
14992;SDS011;7592;51.088;13.732;2022-12-16T19:32:33;67.47;;;39.13;;
14992;SDS011;7592;51.088;13.732;2022-12-16T19:37:43;65.30;;;40.10;;
14992;SDS011;7592;51.088;13.732;2022-12-16T19:42:54;63.77;;;39.70;;
14992;SDS011;7592;51.088;13.732;2022-12-16T19:48:05;70.60;;;42.63;;
14992;SDS011;7592;51.088;13.732;2022-12-16T19:53:20;65.83;;;40.23;;
14992;SDS011;7592;51.088;13.732;2022-12-16T19:58:31;68.67;;;41.40;;
14992;SDS011;7592;51.088;13.732;2022-12-16T20:03:42;72.47;;;42.60;;
14992;SDS011;7592;51.088;13.732;2022-12-16T20:08:53;65.17;;;40.53;;
14992;SDS011;7592;51.088;13.732;2022-12-16T20:14:06;63.83;;;41.27;;
14992;SDS011;7592;51.088;13.732;2022-12-16T20:19:17;66.80;;;40.30;;
14992;SDS011;7592;51.088;13.732;2022-12-16T20:24:29;68.20;;;39.60;;
14992;SDS011;7592;51.088;13.732;2022-12-16T20:29:39;67.60;;;40.37;;
14992;SDS011;7592;51.088;13.732;2022-12-16T20:35:10;69.80;;;40.00;;
14992;SDS011;7592;51.088;13.732;2022-12-16T20:40:20;68.20;;;40.60;;
14992;SDS011;7592;51.088;13.732;2022-12-16T20:45:31;63.40;;;39.67;;
14992;SDS011;7592;51.088;13.732;2022-12-16T20:50:42;60.23;;;38.17;;
14992;SDS011;7592;51.088;13.732;2022-12-16T20:55:52;63.57;;;39.67;;
14992;SDS011;7592;51.088;13.732;2022-12-16T21:01:03;65.23;;;38.73;;
14992;SDS011;7592;51.088;13.732;2022-12-16T21:06:14;60.10;;;37.47;;
14992;SDS011;7592;51.088;13.732;2022-12-16T21:11:25;62.00;;;38.73;;
14992;SDS011;7592;51.088;13.732;2022-12-16T21:16:35;65.57;;;38.80;;
14992;SDS011;7592;51.088;13.732;2022-12-16T21:21:46;59.87;;;36.67;;
14992;SDS011;7592;51.088;13.732;2022-12-16T21:26:56;70.97;;;42.47;;
14992;SDS011;7592;51.088;13.732;2022-12-16T21:32:07;66.03;;;39.30;;
14992;SDS011;7592;51.088;13.732;2022-12-16T21:37:18;69.80;;;39.93;;
14992;SDS011;7592;51.088;13.732;2022-12-16T21:42:28;62.20;;;38.57;;
14992;SDS011;7592;51.088;13.732;2022-12-16T21:47:39;64.50;;;39.17;;
14992;SDS011;7592;51.088;13.732;2022-12-16T21:52:49;71.07;;;40.67;;
14992;SDS011;7592;51.088;13.732;2022-12-16T21:58:00;64.77;;;39.67;;
14992;SDS011;7592;51.088;13.732;2022-12-16T22:03:10;62.90;;;39.27;;
14992;SDS011;7592;51.088;13.732;2022-12-16T22:08:21;60.77;;;38.00;;
14992;SDS011;7592;51.088;13.732;2022-12-16T22:13:31;65.20;;;38.47;;
14992;SDS011;7592;51.088;13.732;2022-12-16T22:18:42;61.63;;;38.63;;
14992;SDS011;7592;51.088;13.732;2022-12-16T22:23:52;60.33;;;37.60;;
14992;SDS011;7592;51.088;13.732;2022-12-16T22:29:03;61.53;;;39.33;;
14992;SDS011;7592;51.088;13.732;2022-12-16T22:34:13;59.53;;;37.13;;
14992;SDS011;7592;51.088;13.732;2022-12-16T22:39:24;66.20;;;40.93;;
14992;SDS011;7592;51.088;13.732;2022-12-16T22:44:55;63.67;;;38.10;;
14992;SDS011;7592;51.088;13.732;2022-12-16T22:50:05;59.07;;;36.57;;
14992;SDS011;7592;51.088;13.732;2022-12-16T22:55:16;58.87;;;36.47;;
14992;SDS011;7592;51.088;13.732;2022-12-16T23:00:27;56.63;;;36.33;;
14992;SDS011;7592;51.088;13.732;2022-12-16T23:05:37;57.90;;;37.10;;
14992;SDS011;7592;51.088;13.732;2022-12-16T23:10:54;59.30;;;37.03;;
14992;SDS011;7592;51.088;13.732;2022-12-16T23:16:07;52.57;;;34.13;;
14992;SDS011;7592;51.088;13.732;2022-12-16T23:21:17;58.73;;;35.00;;
14992;SDS011;7592;51.088;13.732;2022-12-16T23:26:28;57.07;;;33.90;;
14992;SDS011;7592;51.088;13.732;2022-12-16T23:31:39;61.20;;;35.17;;
14992;SDS011;7592;51.088;13.732;2022-12-16T23:36:50;57.23;;;34.73;;
14992;SDS011;7592;51.088;13.732;2022-12-16T23:42:01;52.47;;;32.77;;
14992;SDS011;7592;51.088;13.732;2022-12-16T23:47:11;54.30;;;32.87;;
14992;SDS011;7592;51.088;13.732;2022-12-16T23:52:22;54.73;;;34.60;;
14992;SDS011;7592;51.088;13.732;2022-12-16T23:57:32;54.23;;;33.37;;
